sensor_id;sensor_type;location;lat;lon;timestamp;P1;durP1;ratioP1;P2;durP2;ratioP2
78871;SDS011;68247;43.514;1.502;2023-06-19T00:02:16;23.93;;;12.50;;
78871;SDS011;68247;43.514;1.502;2023-06-19T00:04:41;22.73;;;12.90;;
78871;SDS011;68247;43.514;1.502;2023-06-19T00:07:07;23.53;;;12.90;;
78871;SDS011;68247;43.514;1.502;2023-06-19T00:09:32;23.23;;;13.03;;
78871;SDS011;68247;43.514;1.502;2023-06-19T00:11:57;22.65;;;12.95;;
78871;SDS011;68247;43.514;1.502;2023-06-19T00:14:24;19.93;;;13.30;;
78871;SDS011;68247;43.514;1.502;2023-06-19T00:16:50;21.83;;;14.88;;
78871;SDS011;68247;43.514;1.502;2023-06-19T00:19:16;27.27;;;14.93;;
78871;SDS011;68247;43.514;1.502;2023-06-19T00:21:42;24.20;;;14.18;;
78871;SDS011;68247;43.514;1.502;2023-06-19T00:24:08;24.60;;;14.40;;
78871;SDS011;68247;43.514;1.502;2023-06-19T00:26:33;27.97;;;15.70;;
78871;SDS011;68247;43.514;1.502;2023-06-19T00:28:58;24.40;;;14.80;;
78871;SDS011;68247;43.514;1.502;2023-06-19T00:31:24;22.80;;;14.70;;
78871;SDS011;68247;43.514;1.502;2023-06-19T00:33:49;25.90;;;15.03;;
78871;SDS011;68247;43.514;1.502;2023-06-19T00:36:16;24.88;;;14.77;;
78871;SDS011;68247;43.514;1.502;2023-06-19T00:38:44;22.67;;;15.18;;
78871;SDS011;68247;43.514;1.502;2023-06-19T00:41:10;30.00;;;16.70;;
78871;SDS011;68247;43.514;1.502;2023-06-19T00:43:35;29.00;;;16.47;;
78871;SDS011;68247;43.514;1.502;2023-06-19T00:46:01;28.33;;;16.77;;
78871;SDS011;68247;43.514;1.502;2023-06-19T00:48:30;27.48;;;15.55;;
78871;SDS011;68247;43.514;1.502;2023-06-19T00:50:55;26.25;;;14.75;;
78871;SDS011;68247;43.514;1.502;2023-06-19T00:53:21;26.30;;;15.03;;
78871;SDS011;68247;43.514;1.502;2023-06-19T00:55:47;25.63;;;15.52;;
78871;SDS011;68247;43.514;1.502;2023-06-19T00:58:12;26.80;;;14.50;;
78871;SDS011;68247;43.514;1.502;2023-06-19T01:00:38;21.67;;;14.13;;
78871;SDS011;68247;43.514;1.502;2023-06-19T01:03:03;21.17;;;14.07;;
78871;SDS011;68247;43.514;1.502;2023-06-19T01:05:29;24.90;;;13.53;;
78871;SDS011;68247;43.514;1.502;2023-06-19T01:10:27;29.23;;;15.50;;
78871;SDS011;68247;43.514;1.502;2023-06-19T01:12:56;23.83;;;14.60;;
78871;SDS011;68247;43.514;1.502;2023-06-19T01:15:23;28.67;;;15.00;;
78871;SDS011;68247;43.514;1.502;2023-06-19T01:17:49;29.00;;;14.77;;
78871;SDS011;68247;43.514;1.502;2023-06-19T01:20:14;29.35;;;16.00;;
78871;SDS011;68247;43.514;1.502;2023-06-19T01:22:40;30.80;;;15.50;;
78871;SDS011;68247;43.514;1.502;2023-06-19T01:25:08;30.70;;;14.65;;
78871;SDS011;68247;43.514;1.502;2023-06-19T01:27:34;22.37;;;13.63;;
78871;SDS011;68247;43.514;1.502;2023-06-19T01:29:59;21.73;;;13.53;;
78871;SDS011;68247;43.514;1.502;2023-06-19T01:32:38;25.67;;;13.93;;
78871;SDS011;68247;43.514;1.502;2023-06-19T01:35:05;21.40;;;13.65;;
78871;SDS011;68247;43.514;1.502;2023-06-19T01:37:33;24.38;;;13.32;;
78871;SDS011;68247;43.514;1.502;2023-06-19T01:39:58;23.33;;;13.87;;
78871;SDS011;68247;43.514;1.502;2023-06-19T01:42:25;21.35;;;12.82;;
78871;SDS011;68247;43.514;1.502;2023-06-19T01:44:50;21.58;;;13.50;;
78871;SDS011;68247;43.514;1.502;2023-06-19T01:47:16;26.43;;;13.90;;
78871;SDS011;68247;43.514;1.502;2023-06-19T01:49:45;21.00;;;12.85;;
78871;SDS011;68247;43.514;1.502;2023-06-19T01:52:10;22.43;;;13.40;;
78871;SDS011;68247;43.514;1.502;2023-06-19T01:54:36;29.85;;;13.45;;
78871;SDS011;68247;43.514;1.502;2023-06-19T01:57:01;22.77;;;13.57;;
78871;SDS011;68247;43.514;1.502;2023-06-19T01:59:26;29.50;;;14.73;;
78871;SDS011;68247;43.514;1.502;2023-06-19T02:01:52;22.70;;;13.03;;
78871;SDS011;68247;43.514;1.502;2023-06-19T02:04:17;25.70;;;13.27;;
78871;SDS011;68247;43.514;1.502;2023-06-19T02:06:42;18.93;;;12.93;;
78871;SDS011;68247;43.514;1.502;2023-06-19T02:09:08;20.53;;;12.33;;
78871;SDS011;68247;43.514;1.502;2023-06-19T02:11:33;18.83;;;13.20;;
78871;SDS011;68247;43.514;1.502;2023-06-19T02:13:58;21.93;;;12.90;;
78871;SDS011;68247;43.514;1.502;2023-06-19T02:16:24;19.50;;;11.97;;
78871;SDS011;68247;43.514;1.502;2023-06-19T02:18:49;20.43;;;11.13;;
78871;SDS011;68247;43.514;1.502;2023-06-19T02:21:14;19.53;;;10.93;;
78871;SDS011;68247;43.514;1.502;2023-06-19T02:23:40;15.67;;;10.30;;
78871;SDS011;68247;43.514;1.502;2023-06-19T02:26:05;16.40;;;10.17;;
78871;SDS011;68247;43.514;1.502;2023-06-19T02:28:30;16.77;;;10.37;;
78871;SDS011;68247;43.514;1.502;2023-06-19T02:30:55;14.57;;;10.33;;
78871;SDS011;68247;43.514;1.502;2023-06-19T02:33:21;16.27;;;9.83;;
78871;SDS011;68247;43.514;1.502;2023-06-19T02:35:46;12.93;;;10.20;;
78871;SDS011;68247;43.514;1.502;2023-06-19T02:38:12;16.90;;;10.27;;
78871;SDS011;68247;43.514;1.502;2023-06-19T02:40:37;17.48;;;10.77;;
78871;SDS011;68247;43.514;1.502;2023-06-19T02:43:03;15.03;;;10.63;;
78871;SDS011;68247;43.514;1.502;2023-06-19T02:45:28;17.27;;;11.53;;
78871;SDS011;68247;43.514;1.502;2023-06-19T02:47:54;17.87;;;11.27;;
78871;SDS011;68247;43.514;1.502;2023-06-19T02:50:19;18.52;;;11.50;;
78871;SDS011;68247;43.514;1.502;2023-06-19T02:52:44;16.10;;;10.90;;
78871;SDS011;68247;43.514;1.502;2023-06-19T02:55:09;15.57;;;10.00;;
78871;SDS011;68247;43.514;1.502;2023-06-19T02:57:35;18.23;;;11.57;;
78871;SDS011;68247;43.514;1.502;2023-06-19T03:00:00;18.60;;;10.90;;
78871;SDS011;68247;43.514;1.502;2023-06-19T03:02:25;19.07;;;11.20;;
78871;SDS011;68247;43.514;1.502;2023-06-19T03:04:51;16.00;;;10.47;;
78871;SDS011;68247;43.514;1.502;2023-06-19T03:07:17;19.85;;;11.98;;
78871;SDS011;68247;43.514;1.502;2023-06-19T03:09:42;20.13;;;11.60;;
78871;SDS011;68247;43.514;1.502;2023-06-19T03:12:08;18.83;;;11.87;;
78871;SDS011;68247;43.514;1.502;2023-06-19T03:14:33;16.27;;;11.35;;
78871;SDS011;68247;43.514;1.502;2023-06-19T03:16:58;21.40;;;11.67;;
78871;SDS011;68247;43.514;1.502;2023-06-19T03:19:24;19.87;;;11.70;;
78871;SDS011;68247;43.514;1.502;2023-06-19T03:21:49;20.33;;;11.87;;
78871;SDS011;68247;43.514;1.502;2023-06-19T03:24:14;18.73;;;11.03;;
78871;SDS011;68247;43.514;1.502;2023-06-19T03:26:39;19.57;;;12.33;;
78871;SDS011;68247;43.514;1.502;2023-06-19T03:29:05;20.07;;;12.00;;
78871;SDS011;68247;43.514;1.502;2023-06-19T03:31:30;21.35;;;11.98;;
78871;SDS011;68247;43.514;1.502;2023-06-19T03:33:56;17.27;;;11.03;;
78871;SDS011;68247;43.514;1.502;2023-06-19T03:36:21;18.47;;;11.17;;
78871;SDS011;68247;43.514;1.502;2023-06-19T03:38:48;17.20;;;11.25;;
78871;SDS011;68247;43.514;1.502;2023-06-19T03:41:13;24.67;;;12.37;;
78871;SDS011;68247;43.514;1.502;2023-06-19T03:43:38;18.13;;;12.53;;
78871;SDS011;68247;43.514;1.502;2023-06-19T03:46:04;21.52;;;12.07;;
78871;SDS011;68247;43.514;1.502;2023-06-19T03:48:29;16.10;;;11.33;;
78871;SDS011;68247;43.514;1.502;2023-06-19T03:50:55;18.83;;;11.50;;
78871;SDS011;68247;43.514;1.502;2023-06-19T03:53:20;16.23;;;11.47;;
78871;SDS011;68247;43.514;1.502;2023-06-19T03:55:45;20.33;;;13.07;;
78871;SDS011;68247;43.514;1.502;2023-06-19T03:58:11;22.20;;;11.57;;
78871;SDS011;68247;43.514;1.502;2023-06-19T04:00:36;16.00;;;11.83;;
78871;SDS011;68247;43.514;1.502;2023-06-19T04:03:01;20.43;;;11.70;;
78871;SDS011;68247;43.514;1.502;2023-06-19T04:05:26;22.10;;;12.63;;
78871;SDS011;68247;43.514;1.502;2023-06-19T04:07:52;20.77;;;11.50;;
78871;SDS011;68247;43.514;1.502;2023-06-19T04:10:17;18.67;;;12.20;;
78871;SDS011;68247;43.514;1.502;2023-06-19T04:12:42;18.10;;;11.73;;
78871;SDS011;68247;43.514;1.502;2023-06-19T04:15:10;18.85;;;11.07;;
78871;SDS011;68247;43.514;1.502;2023-06-19T04:17:35;20.43;;;12.00;;
78871;SDS011;68247;43.514;1.502;2023-06-19T04:20:01;17.02;;;10.95;;
78871;SDS011;68247;43.514;1.502;2023-06-19T04:22:26;17.43;;;11.53;;
78871;SDS011;68247;43.514;1.502;2023-06-19T04:24:51;18.70;;;11.90;;
78871;SDS011;68247;43.514;1.502;2023-06-19T04:27:16;19.00;;;12.87;;
78871;SDS011;68247;43.514;1.502;2023-06-19T04:29:42;17.90;;;11.80;;
78871;SDS011;68247;43.514;1.502;2023-06-19T04:32:07;19.90;;;11.83;;
78871;SDS011;68247;43.514;1.502;2023-06-19T04:34:36;20.58;;;12.02;;
78871;SDS011;68247;43.514;1.502;2023-06-19T04:37:02;19.38;;;12.48;;
78871;SDS011;68247;43.514;1.502;2023-06-19T04:39:27;19.70;;;11.93;;
78871;SDS011;68247;43.514;1.502;2023-06-19T04:41:52;17.60;;;11.53;;
78871;SDS011;68247;43.514;1.502;2023-06-19T04:44:18;18.10;;;12.57;;
78871;SDS011;68247;43.514;1.502;2023-06-19T04:46:43;22.30;;;12.07;;
78871;SDS011;68247;43.514;1.502;2023-06-19T04:49:11;17.60;;;11.35;;
78871;SDS011;68247;43.514;1.502;2023-06-19T04:51:37;19.48;;;12.73;;
78871;SDS011;68247;43.514;1.502;2023-06-19T04:54:03;19.20;;;12.90;;
78871;SDS011;68247;43.514;1.502;2023-06-19T04:56:28;18.53;;;11.73;;
78871;SDS011;68247;43.514;1.502;2023-06-19T04:58:54;16.67;;;11.83;;
78871;SDS011;68247;43.514;1.502;2023-06-19T05:01:21;25.33;;;12.20;;
78871;SDS011;68247;43.514;1.502;2023-06-19T05:03:52;19.58;;;12.10;;
78871;SDS011;68247;43.514;1.502;2023-06-19T05:06:17;21.10;;;12.00;;
78871;SDS011;68247;43.514;1.502;2023-06-19T05:08:42;17.10;;;11.83;;
78871;SDS011;68247;43.514;1.502;2023-06-19T05:11:08;19.63;;;11.17;;
78871;SDS011;68247;43.514;1.502;2023-06-19T05:13:33;16.17;;;11.13;;
78871;SDS011;68247;43.514;1.502;2023-06-19T05:15:58;17.70;;;11.43;;
78871;SDS011;68247;43.514;1.502;2023-06-19T05:18:24;15.93;;;10.67;;
78871;SDS011;68247;43.514;1.502;2023-06-19T05:20:49;17.03;;;10.93;;
78871;SDS011;68247;43.514;1.502;2023-06-19T05:23:14;16.80;;;10.80;;
78871;SDS011;68247;43.514;1.502;2023-06-19T05:25:39;15.20;;;11.23;;
78871;SDS011;68247;43.514;1.502;2023-06-19T05:28:05;17.20;;;10.50;;
78871;SDS011;68247;43.514;1.502;2023-06-19T05:30:30;16.20;;;10.90;;
78871;SDS011;68247;43.514;1.502;2023-06-19T05:32:55;16.03;;;10.27;;
78871;SDS011;68247;43.514;1.502;2023-06-19T05:35:21;16.80;;;11.00;;
78871;SDS011;68247;43.514;1.502;2023-06-19T05:37:46;16.60;;;10.38;;
78871;SDS011;68247;43.514;1.502;2023-06-19T05:40:12;15.15;;;10.50;;
78871;SDS011;68247;43.514;1.502;2023-06-19T05:42:37;14.67;;;10.43;;
78871;SDS011;68247;43.514;1.502;2023-06-19T05:45:03;19.00;;;9.83;;
78871;SDS011;68247;43.514;1.502;2023-06-19T05:47:29;12.97;;;9.20;;
78871;SDS011;68247;43.514;1.502;2023-06-19T05:49:56;15.50;;;9.82;;
78871;SDS011;68247;43.514;1.502;2023-06-19T05:52:21;14.93;;;9.88;;
78871;SDS011;68247;43.514;1.502;2023-06-19T05:54:47;15.00;;;9.30;;
78871;SDS011;68247;43.514;1.502;2023-06-19T05:57:12;14.52;;;9.32;;
78871;SDS011;68247;43.514;1.502;2023-06-19T05:59:38;11.23;;;8.97;;
78871;SDS011;68247;43.514;1.502;2023-06-19T06:02:03;14.03;;;8.70;;
78871;SDS011;68247;43.514;1.502;2023-06-19T06:04:29;14.43;;;9.30;;
78871;SDS011;68247;43.514;1.502;2023-06-19T06:06:55;14.20;;;9.88;;
78871;SDS011;68247;43.514;1.502;2023-06-19T06:09:21;16.02;;;9.52;;
78871;SDS011;68247;43.514;1.502;2023-06-19T06:11:46;13.57;;;9.73;;
78871;SDS011;68247;43.514;1.502;2023-06-19T06:14:12;14.50;;;9.93;;
78871;SDS011;68247;43.514;1.502;2023-06-19T06:16:37;16.20;;;10.43;;
78871;SDS011;68247;43.514;1.502;2023-06-19T06:19:02;15.40;;;10.50;;
78871;SDS011;68247;43.514;1.502;2023-06-19T06:21:27;13.80;;;10.17;;
78871;SDS011;68247;43.514;1.502;2023-06-19T06:23:53;15.15;;;10.27;;
78871;SDS011;68247;43.514;1.502;2023-06-19T06:26:19;17.17;;;9.97;;
78871;SDS011;68247;43.514;1.502;2023-06-19T06:28:44;13.67;;;10.33;;
78871;SDS011;68247;43.514;1.502;2023-06-19T06:31:10;17.10;;;9.83;;
78871;SDS011;68247;43.514;1.502;2023-06-19T06:33:35;14.07;;;10.20;;
78871;SDS011;68247;43.514;1.502;2023-06-19T06:36:00;13.30;;;9.63;;
78871;SDS011;68247;43.514;1.502;2023-06-19T06:38:26;17.50;;;10.13;;
78871;SDS011;68247;43.514;1.502;2023-06-19T06:40:51;13.90;;;10.20;;
78871;SDS011;68247;43.514;1.502;2023-06-19T06:43:17;15.23;;;10.70;;
78871;SDS011;68247;43.514;1.502;2023-06-19T06:45:42;15.70;;;11.07;;
78871;SDS011;68247;43.514;1.502;2023-06-19T06:48:07;15.90;;;10.37;;
78871;SDS011;68247;43.514;1.502;2023-06-19T06:50:33;14.93;;;10.00;;
78871;SDS011;68247;43.514;1.502;2023-06-19T06:52:58;15.13;;;10.07;;
78871;SDS011;68247;43.514;1.502;2023-06-19T06:55:23;15.00;;;9.50;;
78871;SDS011;68247;43.514;1.502;2023-06-19T06:57:49;12.83;;;9.33;;
78871;SDS011;68247;43.514;1.502;2023-06-19T07:00:14;14.33;;;10.33;;
78871;SDS011;68247;43.514;1.502;2023-06-19T07:02:39;15.07;;;10.43;;
78871;SDS011;68247;43.514;1.502;2023-06-19T07:05:06;17.00;;;10.47;;
78871;SDS011;68247;43.514;1.502;2023-06-19T07:07:32;13.30;;;9.33;;
78871;SDS011;68247;43.514;1.502;2023-06-19T07:09:57;13.43;;;9.37;;
78871;SDS011;68247;43.514;1.502;2023-06-19T07:12:22;13.75;;;8.93;;
78871;SDS011;68247;43.514;1.502;2023-06-19T07:14:48;13.60;;;9.20;;
78871;SDS011;68247;43.514;1.502;2023-06-19T07:17:13;11.77;;;8.40;;
78871;SDS011;68247;43.514;1.502;2023-06-19T07:19:38;13.87;;;9.30;;
78871;SDS011;68247;43.514;1.502;2023-06-19T07:22:03;13.90;;;9.40;;
78871;SDS011;68247;43.514;1.502;2023-06-19T07:24:29;16.50;;;10.00;;
78871;SDS011;68247;43.514;1.502;2023-06-19T07:26:54;15.57;;;10.23;;
78871;SDS011;68247;43.514;1.502;2023-06-19T07:29:21;14.65;;;10.70;;
78871;SDS011;68247;43.514;1.502;2023-06-19T07:31:46;15.37;;;10.97;;
78871;SDS011;68247;43.514;1.502;2023-06-19T07:34:12;17.67;;;10.82;;
78871;SDS011;68247;43.514;1.502;2023-06-19T07:36:38;16.23;;;10.63;;
78871;SDS011;68247;43.514;1.502;2023-06-19T07:39:03;16.30;;;11.00;;
78871;SDS011;68247;43.514;1.502;2023-06-19T07:41:28;17.13;;;11.00;;
78871;SDS011;68247;43.514;1.502;2023-06-19T07:43:54;18.13;;;11.17;;
78871;SDS011;68247;43.514;1.502;2023-06-19T07:46:19;17.53;;;11.93;;
78871;SDS011;68247;43.514;1.502;2023-06-19T07:48:44;18.83;;;12.73;;
78871;SDS011;68247;43.514;1.502;2023-06-19T07:51:10;15.67;;;11.50;;
78871;SDS011;68247;43.514;1.502;2023-06-19T07:53:35;17.27;;;11.80;;
78871;SDS011;68247;43.514;1.502;2023-06-19T07:56:00;16.40;;;11.50;;
78871;SDS011;68247;43.514;1.502;2023-06-19T07:58:26;16.53;;;11.00;;
78871;SDS011;68247;43.514;1.502;2023-06-19T08:00:51;17.33;;;11.00;;
78871;SDS011;68247;43.514;1.502;2023-06-19T08:03:16;18.00;;;11.17;;
78871;SDS011;68247;43.514;1.502;2023-06-19T08:05:42;18.53;;;10.60;;
78871;SDS011;68247;43.514;1.502;2023-06-19T08:08:07;15.73;;;10.57;;
78871;SDS011;68247;43.514;1.502;2023-06-19T08:10:32;16.40;;;11.07;;
78871;SDS011;68247;43.514;1.502;2023-06-19T08:12:57;14.37;;;10.60;;
78871;SDS011;68247;43.514;1.502;2023-06-19T08:15:23;16.70;;;10.40;;
78871;SDS011;68247;43.514;1.502;2023-06-19T08:17:48;16.57;;;10.80;;
78871;SDS011;68247;43.514;1.502;2023-06-19T08:20:13;15.07;;;10.40;;
78871;SDS011;68247;43.514;1.502;2023-06-19T08:22:39;15.70;;;10.70;;
78871;SDS011;68247;43.514;1.502;2023-06-19T08:25:04;15.73;;;10.17;;
78871;SDS011;68247;43.514;1.502;2023-06-19T08:27:29;15.70;;;11.00;;
78871;SDS011;68247;43.514;1.502;2023-06-19T08:29:55;15.37;;;10.47;;
78871;SDS011;68247;43.514;1.502;2023-06-19T08:32:20;15.60;;;10.27;;
78871;SDS011;68247;43.514;1.502;2023-06-19T08:34:45;13.40;;;10.43;;
78871;SDS011;68247;43.514;1.502;2023-06-19T08:37:11;16.60;;;11.17;;
78871;SDS011;68247;43.514;1.502;2023-06-19T08:39:36;13.93;;;10.03;;
78871;SDS011;68247;43.514;1.502;2023-06-19T08:42:05;14.90;;;10.93;;
78871;SDS011;68247;43.514;1.502;2023-06-19T08:44:30;14.75;;;9.93;;
78871;SDS011;68247;43.514;1.502;2023-06-19T08:46:57;16.67;;;10.80;;
78871;SDS011;68247;43.514;1.502;2023-06-19T08:49:22;14.50;;;11.07;;
78871;SDS011;68247;43.514;1.502;2023-06-19T08:51:47;17.13;;;11.57;;
78871;SDS011;68247;43.514;1.502;2023-06-19T08:54:13;16.60;;;11.70;;
78871;SDS011;68247;43.514;1.502;2023-06-19T08:56:38;14.63;;;11.27;;
78871;SDS011;68247;43.514;1.502;2023-06-19T08:59:10;16.73;;;11.67;;
78871;SDS011;68247;43.514;1.502;2023-06-19T09:01:36;14.57;;;10.70;;
78871;SDS011;68247;43.514;1.502;2023-06-19T09:04:11;14.50;;;10.90;;
78871;SDS011;68247;43.514;1.502;2023-06-19T09:06:50;15.23;;;10.85;;
78871;SDS011;68247;43.514;1.502;2023-06-19T09:09:16;14.10;;;10.40;;
78871;SDS011;68247;43.514;1.502;2023-06-19T09:11:42;13.27;;;10.03;;
78871;SDS011;68247;43.514;1.502;2023-06-19T09:14:10;16.42;;;10.68;;
78871;SDS011;68247;43.514;1.502;2023-06-19T09:16:39;14.20;;;9.75;;
78871;SDS011;68247;43.514;1.502;2023-06-19T09:19:05;14.68;;;10.98;;
78871;SDS011;68247;43.514;1.502;2023-06-19T09:21:30;13.93;;;10.03;;
78871;SDS011;68247;43.514;1.502;2023-06-19T09:24:01;15.63;;;10.00;;
78871;SDS011;68247;43.514;1.502;2023-06-19T09:26:27;16.88;;;10.52;;
78871;SDS011;68247;43.514;1.502;2023-06-19T09:28:52;14.03;;;10.60;;
78871;SDS011;68247;43.514;1.502;2023-06-19T09:31:17;13.60;;;10.67;;
78871;SDS011;68247;43.514;1.502;2023-06-19T09:33:43;15.80;;;10.43;;
78871;SDS011;68247;43.514;1.502;2023-06-19T09:36:08;15.27;;;10.80;;
78871;SDS011;68247;43.514;1.502;2023-06-19T09:38:37;13.03;;;9.67;;
78871;SDS011;68247;43.514;1.502;2023-06-19T09:41:04;13.30;;;10.57;;
78871;SDS011;68247;43.514;1.502;2023-06-19T09:43:33;14.00;;;9.90;;
78871;SDS011;68247;43.514;1.502;2023-06-19T09:45:58;14.93;;;10.52;;
78871;SDS011;68247;43.514;1.502;2023-06-19T09:48:29;15.55;;;10.25;;
78871;SDS011;68247;43.514;1.502;2023-06-19T09:50:55;15.30;;;10.10;;
78871;SDS011;68247;43.514;1.502;2023-06-19T09:53:24;12.75;;;10.77;;
78871;SDS011;68247;43.514;1.502;2023-06-19T09:55:50;13.93;;;11.23;;
78871;SDS011;68247;43.514;1.502;2023-06-19T09:58:17;14.10;;;10.03;;
78871;SDS011;68247;43.514;1.502;2023-06-19T10:00:42;13.63;;;10.85;;
78871;SDS011;68247;43.514;1.502;2023-06-19T10:03:12;13.93;;;10.10;;
78871;SDS011;68247;43.514;1.502;2023-06-19T10:05:37;13.25;;;10.27;;
78871;SDS011;68247;43.514;1.502;2023-06-19T10:08:03;14.53;;;10.37;;
78871;SDS011;68247;43.514;1.502;2023-06-19T10:10:29;16.15;;;10.65;;
78871;SDS011;68247;43.514;1.502;2023-06-19T10:12:55;12.90;;;10.27;;
78871;SDS011;68247;43.514;1.502;2023-06-19T10:15:22;13.52;;;10.00;;
78871;SDS011;68247;43.514;1.502;2023-06-19T10:17:52;12.32;;;9.82;;
78871;SDS011;68247;43.514;1.502;2023-06-19T10:20:36;12.93;;;9.70;;
78871;SDS011;68247;43.514;1.502;2023-06-19T10:23:10;12.98;;;9.02;;
78871;SDS011;68247;43.514;1.502;2023-06-19T10:25:37;12.27;;;9.25;;
78871;SDS011;68247;43.514;1.502;2023-06-19T10:28:02;12.63;;;9.05;;
78871;SDS011;68247;43.514;1.502;2023-06-19T10:30:31;12.30;;;8.98;;
78871;SDS011;68247;43.514;1.502;2023-06-19T10:32:57;11.37;;;8.53;;
78871;SDS011;68247;43.514;1.502;2023-06-19T10:35:22;11.75;;;8.68;;
78871;SDS011;68247;43.514;1.502;2023-06-19T10:37:49;12.97;;;8.63;;
78871;SDS011;68247;43.514;1.502;2023-06-19T10:40:15;11.90;;;8.00;;
78871;SDS011;68247;43.514;1.502;2023-06-19T10:42:40;11.43;;;8.33;;
78871;SDS011;68247;43.514;1.502;2023-06-19T10:45:06;12.33;;;8.30;;
78871;SDS011;68247;43.514;1.502;2023-06-19T10:47:32;11.57;;;8.32;;
78871;SDS011;68247;43.514;1.502;2023-06-19T10:49:58;13.38;;;8.80;;
78871;SDS011;68247;43.514;1.502;2023-06-19T10:52:23;11.07;;;9.13;;
78871;SDS011;68247;43.514;1.502;2023-06-19T10:54:55;12.83;;;8.43;;
78871;SDS011;68247;43.514;1.502;2023-06-19T10:57:27;11.38;;;8.18;;
78871;SDS011;68247;43.514;1.502;2023-06-19T10:59:53;9.98;;;7.97;;
78871;SDS011;68247;43.514;1.502;2023-06-19T11:02:18;11.00;;;8.00;;
78871;SDS011;68247;43.514;1.502;2023-06-19T11:04:43;11.87;;;8.87;;
78871;SDS011;68247;43.514;1.502;2023-06-19T11:07:09;10.98;;;7.80;;
78871;SDS011;68247;43.514;1.502;2023-06-19T11:09:35;11.23;;;8.53;;
78871;SDS011;68247;43.514;1.502;2023-06-19T11:12:00;12.43;;;8.20;;
78871;SDS011;68247;43.514;1.502;2023-06-19T11:14:28;10.65;;;8.07;;
78871;SDS011;68247;43.514;1.502;2023-06-19T11:16:54;9.70;;;7.20;;
78871;SDS011;68247;43.514;1.502;2023-06-19T11:19:20;11.53;;;7.50;;
78871;SDS011;68247;43.514;1.502;2023-06-19T11:21:46;11.17;;;7.00;;
78871;SDS011;68247;43.514;1.502;2023-06-19T11:24:12;13.20;;;8.15;;
78871;SDS011;68247;43.514;1.502;2023-06-19T11:26:41;12.82;;;7.68;;
78871;SDS011;68247;43.514;1.502;2023-06-19T11:29:24;10.60;;;7.43;;
78871;SDS011;68247;43.514;1.502;2023-06-19T11:31:50;12.18;;;7.68;;
78871;SDS011;68247;43.514;1.502;2023-06-19T11:34:16;10.20;;;7.13;;
78871;SDS011;68247;43.514;1.502;2023-06-19T11:36:42;9.20;;;6.72;;
78871;SDS011;68247;43.514;1.502;2023-06-19T11:39:14;10.30;;;7.30;;
78871;SDS011;68247;43.514;1.502;2023-06-19T11:41:40;10.60;;;6.97;;
78871;SDS011;68247;43.514;1.502;2023-06-19T11:44:07;10.75;;;6.75;;
78871;SDS011;68247;43.514;1.502;2023-06-19T11:46:34;9.27;;;6.95;;
78871;SDS011;68247;43.514;1.502;2023-06-19T11:51:37;14.77;;;7.63;;
78871;SDS011;68247;43.514;1.502;2023-06-19T11:54:04;12.50;;;8.77;;
78871;SDS011;68247;43.514;1.502;2023-06-19T11:56:30;12.07;;;8.45;;
78871;SDS011;68247;43.514;1.502;2023-06-19T11:58:55;11.13;;;8.23;;
78871;SDS011;68247;43.514;1.502;2023-06-19T12:01:21;11.20;;;8.60;;
78871;SDS011;68247;43.514;1.502;2023-06-19T12:03:46;14.40;;;9.13;;
78871;SDS011;68247;43.514;1.502;2023-06-19T12:06:11;12.47;;;9.50;;
78871;SDS011;68247;43.514;1.502;2023-06-19T12:08:37;13.53;;;9.37;;
78871;SDS011;68247;43.514;1.502;2023-06-19T12:11:03;11.17;;;8.40;;
78871;SDS011;68247;43.514;1.502;2023-06-19T12:13:30;11.82;;;9.27;;
78871;SDS011;68247;43.514;1.502;2023-06-19T12:15:55;10.67;;;8.70;;
78871;SDS011;68247;43.514;1.502;2023-06-19T12:18:20;12.13;;;9.03;;
78871;SDS011;68247;43.514;1.502;2023-06-19T12:20:46;11.57;;;8.40;;
78871;SDS011;68247;43.514;1.502;2023-06-19T12:23:11;11.10;;;9.47;;
78871;SDS011;68247;43.514;1.502;2023-06-19T12:25:36;13.37;;;8.87;;
78871;SDS011;68247;43.514;1.502;2023-06-19T12:28:01;11.10;;;8.70;;
78871;SDS011;68247;43.514;1.502;2023-06-19T12:30:32;11.65;;;8.77;;
78871;SDS011;68247;43.514;1.502;2023-06-19T12:32:58;12.00;;;9.00;;
78871;SDS011;68247;43.514;1.502;2023-06-19T12:35:23;12.37;;;8.53;;
78871;SDS011;68247;43.514;1.502;2023-06-19T12:37:51;10.73;;;7.93;;
78871;SDS011;68247;43.514;1.502;2023-06-19T12:40:16;11.18;;;8.23;;
78871;SDS011;68247;43.514;1.502;2023-06-19T12:42:42;12.73;;;8.10;;
78871;SDS011;68247;43.514;1.502;2023-06-19T12:45:08;11.23;;;7.80;;
78871;SDS011;68247;43.514;1.502;2023-06-19T12:47:34;12.60;;;7.93;;
78871;SDS011;68247;43.514;1.502;2023-06-19T12:50:00;10.30;;;7.50;;
78871;SDS011;68247;43.514;1.502;2023-06-19T12:52:25;9.57;;;7.73;;
78871;SDS011;68247;43.514;1.502;2023-06-19T12:54:50;13.53;;;8.70;;
78871;SDS011;68247;43.514;1.502;2023-06-19T12:57:16;11.23;;;7.30;;
78871;SDS011;68247;43.514;1.502;2023-06-19T12:59:41;9.13;;;7.40;;
78871;SDS011;68247;43.514;1.502;2023-06-19T13:02:06;9.98;;;7.50;;
78871;SDS011;68247;43.514;1.502;2023-06-19T13:04:32;9.80;;;7.43;;
78871;SDS011;68247;43.514;1.502;2023-06-19T13:06:57;12.03;;;8.07;;
78871;SDS011;68247;43.514;1.502;2023-06-19T13:09:23;9.87;;;7.73;;
78871;SDS011;68247;43.514;1.502;2023-06-19T13:11:48;9.57;;;6.77;;
78871;SDS011;68247;43.514;1.502;2023-06-19T13:14:14;10.85;;;7.38;;
78871;SDS011;68247;43.514;1.502;2023-06-19T13:16:40;11.60;;;6.93;;
78871;SDS011;68247;43.514;1.502;2023-06-19T13:19:05;9.73;;;6.80;;
78871;SDS011;68247;43.514;1.502;2023-06-19T13:21:30;10.47;;;7.00;;
78871;SDS011;68247;43.514;1.502;2023-06-19T13:23:55;10.73;;;7.17;;
78871;SDS011;68247;43.514;1.502;2023-06-19T13:26:21;10.07;;;7.17;;
78871;SDS011;68247;43.514;1.502;2023-06-19T13:28:46;9.80;;;6.80;;
78871;SDS011;68247;43.514;1.502;2023-06-19T13:31:11;10.53;;;7.03;;
78871;SDS011;68247;43.514;1.502;2023-06-19T13:33:37;10.13;;;7.23;;
78871;SDS011;68247;43.514;1.502;2023-06-19T13:36:02;9.43;;;7.43;;
78871;SDS011;68247;43.514;1.502;2023-06-19T13:38:27;11.50;;;8.00;;
78871;SDS011;68247;43.514;1.502;2023-06-19T13:40:53;13.27;;;7.47;;
78871;SDS011;68247;43.514;1.502;2023-06-19T13:43:18;10.80;;;6.73;;
78871;SDS011;68247;43.514;1.502;2023-06-19T13:45:44;8.97;;;6.77;;
78871;SDS011;68247;43.514;1.502;2023-06-19T13:48:10;11.15;;;7.57;;
78871;SDS011;68247;43.514;1.502;2023-06-19T13:50:35;11.67;;;7.67;;
78871;SDS011;68247;43.514;1.502;2023-06-19T13:53:00;10.60;;;7.30;;
78871;SDS011;68247;43.514;1.502;2023-06-19T13:55:26;10.90;;;7.20;;
78871;SDS011;68247;43.514;1.502;2023-06-19T13:57:51;10.70;;;7.60;;
78871;SDS011;68247;43.514;1.502;2023-06-19T14:00:17;9.75;;;7.18;;
78871;SDS011;68247;43.514;1.502;2023-06-19T14:02:43;10.27;;;7.90;;
78871;SDS011;68247;43.514;1.502;2023-06-19T14:05:09;10.98;;;7.82;;
78871;SDS011;68247;43.514;1.502;2023-06-19T14:07:34;12.20;;;8.17;;
78871;SDS011;68247;43.514;1.502;2023-06-19T14:10:00;11.50;;;8.10;;
78871;SDS011;68247;43.514;1.502;2023-06-19T14:12:25;10.77;;;7.57;;
78871;SDS011;68247;43.514;1.502;2023-06-19T14:14:51;12.30;;;8.27;;
78871;SDS011;68247;43.514;1.502;2023-06-19T14:17:16;11.48;;;8.68;;
78871;SDS011;68247;43.514;1.502;2023-06-19T14:19:42;12.33;;;10.33;;
78871;SDS011;68247;43.514;1.502;2023-06-19T14:22:07;12.47;;;8.87;;
78871;SDS011;68247;43.514;1.502;2023-06-19T14:24:32;12.57;;;8.30;;